createdAt,value
2023-04-22T06:21:03.368Z,98.08
2023-04-22T06:31:03.328Z,119.70
2023-04-22T06:41:03.094Z,100.57
2023-04-22T06:51:03.085Z,107.02
2023-04-22T07:01:03.210Z,125.47
2023-04-22T07:11:03.199Z,106.72
2023-04-22T07:21:03.164Z,99.16
2023-04-22T07:31:03.316Z,102.93
2023-04-22T07:41:03.277Z,101.40
2023-04-22T07:51:03.444Z,132.25
2023-04-22T08:01:03.220Z,112.09
2023-04-22T08:11:03.171Z,135.16
2023-04-22T08:21:03.306Z,127.06
2023-04-22T08:31:03.425Z,126.95
2023-04-22T08:41:04.267Z,152.73
2023-04-22T08:51:04.275Z,159.86
2023-04-22T09:01:04.129Z,157.88
2023-04-22T09:11:04.180Z,156.39
2023-04-22T09:21:04.359Z,144.86
2023-04-22T09:31:04.212Z,137.25
2023-04-22T09:41:04.273Z,151.17
2023-04-22T09:51:04.356Z,110.26
2023-04-22T10:01:04.214Z,102.54
2023-04-22T10:11:04.171Z,95.43
2023-04-22T10:21:04.245Z,96.93
2023-04-22T10:31:04.317Z,108.54
2023-04-22T10:41:04.481Z,105.37
2023-04-22T10:51:04.251Z,102.27
2023-04-22T11:01:04.512Z,103.01
2023-04-22T11:11:04.251Z,96.91
2023-04-22T11:21:04.323Z,118.90
2023-04-22T11:31:04.297Z,121.53
2023-04-22T11:41:04.599Z,139.79
2023-04-22T11:51:04.538Z,107.64
2023-04-22T12:01:04.432Z,116.25
2023-04-22T12:11:04.475Z,139.12
2023-04-22T12:21:04.323Z,162.73
2023-04-22T12:31:04.487Z,167.00
2023-04-22T12:41:04.557Z,174.20
2023-04-22T12:51:04.523Z,149.21
2023-04-22T13:01:04.606Z,150.07
2023-04-22T13:11:04.647Z,155.32
2023-04-22T13:21:04.929Z,151.26
2023-04-22T13:31:04.630Z,157.14
2023-04-22T13:41:04.631Z,164.87
2023-04-22T13:51:04.834Z,143.80
2023-04-22T14:01:04.719Z,145.48
2023-04-22T14:11:04.654Z,140.65
2023-04-22T14:21:04.720Z,145.24
2023-04-22T14:31:04.828Z,159.63
2023-04-22T14:41:04.825Z,146.61
2023-04-22T14:51:04.792Z,155.63
2023-04-22T15:01:06.820Z,151.46
2023-04-22T15:11:04.839Z,142.98
2023-04-22T15:21:04.812Z,140.61
2023-04-22T15:31:04.903Z,150.61
2023-04-22T15:41:04.861Z,152.77
2023-04-22T15:51:04.938Z,153.74
2023-04-22T16:01:17.792Z,158.28
2023-04-22T16:11:04.734Z,166.56
2023-04-22T16:21:04.693Z,169.36
2023-04-22T16:31:04.887Z,158.82
2023-04-22T16:41:04.945Z,166.47
2023-04-22T16:51:04.796Z,168.00
2023-04-22T17:01:04.885Z,162.96
2023-04-22T17:11:04.819Z,153.85
2023-04-22T17:21:04.768Z,153.05
2023-04-22T17:31:04.802Z,156.79
2023-04-22T17:41:04.861Z,137.31
2023-04-22T17:51:04.784Z,136.73
2023-04-22T18:01:05.002Z,150.42
2023-04-22T18:11:04.924Z,165.61
2023-04-22T18:21:05.070Z,178.76
2023-04-22T18:31:05.161Z,177.12
2023-04-22T18:41:04.909Z,178.33
2023-04-22T18:51:04.968Z,179.09
2023-04-22T19:01:04.977Z,180.04
2023-04-22T19:11:05.016Z,177.08
2023-04-22T19:21:05.180Z,181.18
